Time;durP1;ratioP1;P1;durP2;ratioP2;P2;SDS_P1;SDS_P2;PMS_P1;PMS_P2;Temp;Humidity;BMP_temperature;BMP_pressure;BME280_temperature;BME280_humidity;BME280_pressure;Samples;Min_cycle;Max_cycle;Signal;HPM_P1;HPM_P2
2023/08/11 00:02:14;;;;;;;5.20;4.40;;;;;;;19.12;100.00;99832.56;104335;1252;59793;-64
2023/08/11 00:04:42;;;;;;;4.50;4.00;;;;;;;19.12;100.00;99829.86;104278;1251;72816;-65
2023/08/11 00:07:10;;;;;;;4.30;3.80;;;;;;;19.09;100.00;99825.52;104318;1254;69405;-65
2023/08/11 00:09:38;;;;;;;5.60;4.60;;;;;;;19.11;100.00;99819.47;104414;1253;72925;-65
2023/08/11 00:12:06;;;;;;;4.60;3.80;;;;;;;19.15;100.00;99816.35;104311;1251;62312;-64
2023/08/11 00:14:34;;;;;;;5.10;3.90;;;;;;;19.15;100.00;99817.23;104336;1256;60089;-64
2023/08/11 00:17:02;;;;;;;5.60;3.80;;;;;;;19.12;100.00;99812.80;104252;1274;72870;-64
2023/08/11 00:19:30;;;;;;;4.30;3.90;;;;;;;19.11;100.00;99809.89;104367;1257;70121;-65
2023/08/11 00:21:58;;;;;;;5.70;3.50;;;;;;;19.11;100.00;99809.55;104346;1260;71239;-64
2023/08/11 00:24:26;;;;;;;4.70;3.90;;;;;;;19.11;100.00;99813.11;104301;1257;60331;-65
2023/08/11 00:26:54;;;;;;;5.10;3.80;;;;;;;19.08;100.00;99809.38;104316;1251;59830;-64
2023/08/11 00:29:22;;;;;;;5.30;4.20;;;;;;;19.06;100.00;99805.78;104273;1274;71897;-65
2023/08/11 00:31:49;;;;;;;4.20;3.80;;;;;;;19.06;100.00;99802.59;104335;1263;69632;-65
2023/08/11 00:34:17;;;;;;;4.40;3.50;;;;;;;19.05;100.00;99803.02;104298;1256;72737;-64
2023/08/11 00:36:45;;;;;;;;;;;;;;;19.04;100.00;99805.41;104410;1257;61393;-65
2023/08/11 00:39:13;;;;;;;;;;;;;;;19.03;100.00;99807.27;104419;1267;59622;-65
2023/08/11 00:41:40;;;;;;;4.50;3.60;;;;;;;19.01;100.00;99807.22;104465;1260;73683;-65
2023/08/11 00:44:08;;;;;;;6.90;4.00;;;;;;;19.03;100.00;99807.42;104478;1270;69959;-65
2023/08/11 00:46:36;;;;;;;4.90;3.70;;;;;;;19.06;100.00;99799.73;104489;1270;73151;-65
2023/08/11 00:49:03;;;;;;;;;;;;;;;19.08;100.00;99799.13;104353;1252;61392;-64
2023/08/11 00:51:31;;;;;;;;;;;;;;;19.11;100.00;99797.31;104431;1274;59683;-65
2023/08/11 00:53:59;;;;;;;5.30;3.50;;;;;;;19.08;100.00;99793.05;104328;1257;74517;-64
2023/08/11 00:56:26;;;;;;;;;;;;;;;19.07;100.00;99790.10;104398;1270;69245;-64
2023/08/11 00:58:54;;;;;;;5.50;3.90;;;;;;;19.08;100.00;99791.27;104312;1256;73470;-65
2023/08/11 01:01:22;;;;;;;4.80;3.60;;;;;;;19.07;100.00;99789.58;104339;1262;61747;-65
2023/08/11 01:03:51;;;;;;;7.60;3.90;;;;;;;19.07;100.00;99787.25;104339;1251;60702;-64
2023/08/11 01:06:18;;;;;;;;;;;;;;;19.10;100.00;99783.70;104312;1251;73728;-64
2023/08/11 01:09:06;;;;;;;;;;;;;;;19.08;100.00;99782.95;104388;1273;70171;-63
2023/08/11 01:12:00;;;;;;;4.80;3.90;;;;;;;19.01;100.00;99783.67;104250;1273;72658;-64
2023/08/11 01:14:34;;;;;;;6.20;3.70;;;;;;;18.97;100.00;99777.70;104389;1259;60554;-64
2023/08/11 01:17:01;;;;;;;4.90;3.90;;;;;;;18.96;100.00;99774.41;104364;1260;60488;-64
2023/08/11 01:19:34;;;;;;;4.50;4.00;;;;;;;18.92;100.00;99775.05;104379;1254;73631;-64
2023/08/11 01:22:04;;;;;;;4.80;3.90;;;;;;;18.88;100.00;99772.56;104331;1273;69093;-65
2023/08/11 01:24:32;;;;;;;6.10;4.20;;;;;;;18.84;100.00;99773.92;104327;1273;72985;-66
2023/08/11 01:26:59;;;;;;;7.60;4.30;;;;;;;18.79;100.00;99774.44;104357;1251;61411;-66
2023/08/11 01:29:27;;;;;;;4.40;3.80;;;;;;;18.73;100.00;99769.00;104351;1251;60041;-66
2023/08/11 01:31:55;;;;;;;4.80;4.40;;;;;;;18.69;100.00;99763.82;104405;1258;73703;-65
2023/08/11 01:34:23;;;;;;;6.40;4.10;;;;;;;18.64;100.00;99762.40;104374;1263;69747;-66
2023/08/11 01:36:57;;;;;;;7.10;4.60;;;;;;;18.59;100.00;99762.94;104306;1267;73373;-66
2023/08/11 01:39:25;;;;;;;6.70;4.30;;;;;;;18.53;100.00;99757.55;104613;1255;61404;-66
2023/08/11 01:41:57;;;;;;;5.30;4.30;;;;;;;18.47;100.00;99759.73;104282;1267;59698;-67
2023/08/11 01:44:25;;;;;;;;;;;;;;;18.42;100.00;99757.98;104354;1274;73574;-66
2023/08/11 01:46:55;;;;;;;4.60;4.20;;;;;;;18.34;100.00;99756.98;104336;1258;69537;-66
2023/08/11 01:49:23;;;;;;;5.50;3.80;;;;;;;18.28;100.00;99754.94;104375;1270;72609;-67
2023/08/11 01:51:51;;;;;;;4.20;3.80;;;;;;;18.22;100.00;99754.63;104388;1265;61380;-67
2023/08/11 01:54:20;;;;;;;6.70;4.10;;;;;;;18.20;100.00;99756.05;104291;1252;60516;-66
2023/08/11 01:56:47;;;;;;;4.80;3.80;;;;;;;18.16;100.00;99755.25;104321;1274;72682;-66
2023/08/11 01:59:15;;;;;;;;;;;;;;;18.13;100.00;99750.89;104351;1260;69718;-63
2023/08/11 02:01:43;;;;;;;4.50;4.10;;;;;;;18.07;100.00;99752.72;104359;1273;73137;-66
2023/08/11 02:04:12;;;;;;;5.20;4.70;;;;;;;18.03;100.00;99752.13;104252;1261;60865;-65
2023/08/11 02:06:40;;;;;;;5.50;4.30;;;;;;;18.00;100.00;99745.25;104359;1251;60595;-65
2023/08/11 02:09:08;;;;;;;7.00;4.60;;;;;;;17.96;100.00;99746.60;104468;1270;73829;-65
2023/08/11 02:11:37;;;;;;;7.10;4.50;;;;;;;17.92;100.00;99746.52;104235;1257;69189;-65
2023/08/11 02:14:05;;;;;;;5.90;4.20;;;;;;;17.92;100.00;99744.95;104491;1256;72503;-65
2023/08/11 02:16:33;;;;;;;5.70;4.60;;;;;;;17.91;100.00;99746.23;104382;1256;61787;-65
2023/08/11 02:19:01;;;;;;;5.20;4.00;;;;;;;17.89;100.00;99747.95;104306;1264;60619;-65
2023/08/11 02:21:29;;;;;;;5.40;4.50;;;;;;;17.87;100.00;99749.88;104257;1251;73671;-65
2023/08/11 02:23:56;;;;;;;8.60;5.10;;;;;;;17.85;100.00;99749.69;104349;1257;69200;-66
2023/08/11 02:26:24;;;;;;;5.60;5.10;;;;;;;17.84;100.00;99749.38;104612;1257;73322;-65
2023/08/11 02:28:52;;;;;;;;;;;;;;;17.82;100.00;99749.83;104463;1251;61501;-66
2023/08/11 02:31:20;;;;;;;;;;;;;;;17.80;100.00;99749.63;104409;1252;60597;-65
2023/08/11 02:33:48;;;;;;;8.30;4.90;;;;;;;17.78;100.00;99751.59;104260;1257;74320;-65
2023/08/11 02:36:15;;;;;;;5.60;4.70;;;;;;;17.77;100.00;99749.54;104443;1260;69878;-66
2023/08/11 02:38:44;;;;;;;5.00;4.50;;;;;;;17.78;100.00;99747.14;105020;1254;72917;-64
2023/08/11 02:41:11;;;;;;;5.60;4.30;;;;;;;17.78;100.00;99745.18;108383;1253;61579;-65
2023/08/11 02:43:39;;;;;;;8.20;4.50;;;;;;;17.82;100.00;99743.64;105365;1257;59598;-64
2023/08/11 02:46:07;;;;;;;;;;;;;;;17.84;100.00;99740.88;104610;1269;74568;-64
2023/08/11 02:48:36;;;;;;;4.00;3.60;;;;;;;17.83;100.00;99737.58;104829;1257;69085;-63
2023/08/11 02:51:03;;;;;;;5.00;4.60;;;;;;;17.82;100.00;99736.58;104534;1255;72876;-63
2023/08/11 02:53:31;;;;;;;8.40;4.60;;;;;;;17.83;100.00;99736.34;104303;1268;60453;-63
2023/08/11 02:56:06;;;;;;;5.60;4.80;;;;;;;17.85;100.00;99732.50;104324;1257;60524;-64
2023/08/11 02:58:35;;;;;;;5.80;4.70;;;;;;;17.85;100.00;99730.02;104394;1257;74120;-65
2023/08/11 03:01:03;;;;;;;5.30;4.80;;;;;;;17.84;100.00;99731.84;104387;1267;69827;-64
2023/08/11 03:03:31;;;;;;;4.50;4.10;;;;;;;17.85;100.00;99727.17;104320;1257;73185;-64
2023/08/11 03:05:59;;;;;;;4.30;3.90;;;;;;;17.87;100.00;99727.19;104272;1269;62184;-66
2023/08/11 03:08:27;;;;;;;4.70;4.10;;;;;;;17.87;100.00;99730.36;104441;1258;59984;-66
2023/08/11 03:10:55;;;;;;;5.00;4.50;;;;;;;17.88;100.00;99727.83;104301;1254;73658;-64
2023/08/11 03:13:29;;;;;;;5.50;4.40;;;;;;;17.89;100.00;99731.09;104258;1260;68513;-64
2023/08/11 03:15:58;;;;;;;6.40;4.40;;;;;;;17.87;100.00;99731.98;104277;1256;72497;-63
2023/08/11 03:18:27;;;;;;;6.20;4.10;;;;;;;17.86;100.00;99728.17;104390;1259;61402;-63
2023/08/11 03:20:55;;;;;;;8.30;4.70;;;;;;;17.82;100.00;99728.42;104295;1257;60654;-62
2023/08/11 03:23:43;;;;;;;5.70;4.20;;;;;;;17.79;100.00;99731.08;104247;1276;73600;-63
2023/08/11 03:26:11;;;;;;;;;;;;;;;17.80;100.00;99730.68;104336;1268;70153;-63
2023/08/11 03:28:39;;;;;;;4.00;3.60;;;;;;;17.79;100.00;99727.58;104428;1259;72371;-63
2023/08/11 03:31:08;;;;;;;4.60;4.10;;;;;;;17.77;100.00;99730.70;104268;1270;62040;-63
2023/08/11 03:33:39;;;;;;;5.80;4.20;;;;;;;17.79;100.00;99732.14;104227;1266;60095;-63
2023/08/11 03:36:10;;;;;;;4.90;3.90;;;;;;;17.82;100.00;99731.20;104377;1260;74064;-63
2023/08/11 03:38:38;;;;;;;;;;;;;;;17.85;100.00;99732.48;104307;1264;69476;-63
2023/08/11 03:41:05;;;;;;;;;;;;;;;17.87;100.00;99735.90;105581;1254;72436;-64
2023/08/11 03:43:33;;;;;;;;;;;;;;;17.86;100.00;99735.55;108262;1254;60809;-64
2023/08/11 03:46:01;;;;;;;4.00;3.70;;;;;;;17.89;100.00;99735.20;105868;1254;60394;-63
2023/08/11 03:48:29;;;;;;;6.50;4.50;;;;;;;17.91;100.00;99737.20;104679;1260;74069;-66
2023/08/11 03:50:59;;;;;;;5.00;3.90;;;;;;;17.96;100.00;99735.41;104314;1276;69602;-63
2023/08/11 03:53:29;;;;;;;5.10;4.00;;;;;;;18.01;100.00;99738.05;104522;1257;72587;-63
2023/08/11 03:55:57;;;;;;;4.80;4.20;;;;;;;18.07;100.00;99735.34;104344;1258;61430;-63
2023/08/11 03:58:26;;;;;;;7.90;4.20;;;;;;;18.11;100.00;99732.77;104492;1257;60494;-64
2023/08/11 04:00:55;;;;;;;8.10;4.60;;;;;;;18.18;100.00;99727.85;104435;1259;73805;-64
2023/08/11 04:03:23;;;;;;;7.70;4.10;;;;;;;18.25;100.00;99725.16;104284;1276;69110;-64
2023/08/11 04:05:50;;;;;;;;;;;;;;;18.32;100.00;99723.58;104315;1260;73153;-64
2023/08/11 04:08:19;;;;;;;6.00;3.90;;;;;;;18.38;100.00;99724.96;104426;1256;61413;-65
2023/08/11 04:10:47;;;;;;;4.70;4.20;;;;;;;18.41;100.00;99731.61;104255;1266;60130;-63
2023/08/11 04:13:15;;;;;;;4.40;4.00;;;;;;;18.47;100.00;99733.33;104292;1255;73616;-66
2023/08/11 04:15:45;;;;;;;4.50;4.10;;;;;;;18.53;100.00;99729.27;104339;1258;69469;-63
2023/08/11 04:18:16;;;;;;;5.90;3.80;;;;;;;18.60;100.00;99734.42;104424;1259;73381;-64
2023/08/11 04:20:46;;;;;;;5.90;4.20;;;;;;;18.67;100.00;99730.92;104261;1257;61455;-64
2023/08/11 04:23:14;;;;;;;4.90;4.40;;;;;;;18.77;100.00;99732.85;104248;1255;60501;-64
2023/08/11 04:25:43;;;;;;;4.90;3.90;;;;;;;18.84;100.00;99735.71;104294;1254;73587;-69
2023/08/11 04:28:12;;;;;;;5.40;4.70;;;;;;;18.92;100.00;99742.42;104704;1267;69860;-64
2023/08/11 04:30:40;;;;;;;4.20;3.70;;;;;;;19.00;100.00;99744.45;104276;1272;72279;-63
2023/08/11 04:33:12;;;;;;;5.40;4.00;;;;;;;19.08;100.00;99742.80;104501;1259;61466;-65
2023/08/11 04:35:40;;;;;;;5.70;4.10;;;;;;;19.14;100.00;99748.19;104314;1257;60420;-65
2023/08/11 04:38:08;;;;;;;;;;;;;;;19.19;100.00;99753.65;104467;1260;73606;-65
2023/08/11 04:40:37;;;;;;;4.70;3.80;;;;;;;19.22;100.00;99761.95;104305;1263;69356;-66
2023/08/11 04:43:04;;;;;;;5.00;4.00;;;;;;;19.24;100.00;99761.42;108428;1251;72521;-66
2023/08/11 04:45:36;;;;;;;4.20;3.80;;;;;;;19.29;100.00;99753.96;105296;1257;61493;-66
2023/08/11 04:48:04;;;;;;;6.20;3.90;;;;;;;19.37;100.00;99753.17;104631;1257;60522;-66
2023/08/11 04:50:34;;;;;;;5.00;4.50;;;;;;;19.41;100.00;99750.90;104469;1269;72658;-65
2023/08/11 04:53:02;;;;;;;9.00;4.10;;;;;;;19.45;100.00;99755.05;104703;1258;68731;-63
2023/08/11 04:55:31;;;;;;;4.50;3.70;;;;;;;19.51;100.00;99755.42;104538;1257;73432;-63
2023/08/11 04:58:01;;;;;;;5.80;4.00;;;;;;;19.58;100.00;99750.09;104197;1257;61698;-65
2023/08/11 05:00:29;;;;;;;4.70;4.30;;;;;;;19.65;100.00;99748.65;104528;1257;61195;-65
2023/08/11 05:02:57;;;;;;;6.70;3.90;;;;;;;19.71;100.00;99752.69;104282;1276;73694;-64
2023/08/11 05:05:26;;;;;;;8.30;4.30;;;;;;;19.77;100.00;99751.85;104309;1275;69073;-65
2023/08/11 05:07:54;;;;;;;5.80;4.00;;;;;;;19.85;100.00;99754.63;104369;1275;73140;-64
2023/08/11 05:10:21;;;;;;;;;;;;;;;19.93;100.00;99763.08;104434;1255;61563;-67
2023/08/11 05:12:49;;;;;;;4.10;3.70;;;;;;;20.01;100.00;99757.38;104261;1257;60463;-60
2023/08/11 05:15:17;;;;;;;;;;;;;;;20.12;100.00;99765.40;104636;1257;73727;-61
2023/08/11 05:17:45;;;;;;;5.60;4.00;;;;;;;20.22;100.00;99762.83;104221;1257;68242;-60
2023/08/11 05:20:14;;;;;;;7.30;4.00;;;;;;;20.28;100.00;99761.98;104225;1257;72871;-60
2023/08/11 05:22:43;;;;;;;5.60;4.00;;;;;;;20.35;100.00;99758.04;104326;1261;61408;-60
2023/08/11 05:25:11;;;;;;;5.80;3.80;;;;;;;20.43;100.00;99761.63;104267;1257;60485;-62
2023/08/11 05:27:40;;;;;;;5.50;3.70;;;;;;;20.50;100.00;99767.69;104262;1259;73937;-62
2023/08/11 05:30:08;;;;;;;;;;;;;;;20.57;100.00;99765.82;104297;1274;69075;-62
2023/08/11 05:32:35;;;;;;;5.40;3.90;;;;;;;20.66;100.00;99759.61;104280;1254;72025;-63
2023/08/11 05:35:04;;;;;;;5.50;4.40;;;;;;;20.74;100.00;99754.90;104747;1256;61411;-62
2023/08/11 05:37:32;;;;;;;6.30;5.50;;;;;;;20.84;100.00;99756.34;104253;1257;60543;-60
2023/08/11 05:40:00;;;;;;;8.60;4.30;;;;;;;20.95;100.00;99749.21;104356;1259;73655;-68
2023/08/11 05:42:28;;;;;;;7.70;3.80;;;;;;;21.05;100.00;99743.95;104473;1257;69607;-65
2023/08/11 05:44:55;;;;;;;6.90;3.70;;;;;;;21.12;100.00;99747.90;104324;1260;72941;-68
2023/08/11 05:47:23;;;;;;;6.20;3.90;;;;;;;21.15;100.00;99746.03;104356;1275;63686;-68
2023/08/11 05:49:51;;;;;;;;;;;;;;;21.16;100.00;99747.92;104422;1258;60498;-64
2023/08/11 05:52:19;;;;;;;9.40;4.00;;;;;;;21.19;100.00;99744.67;104452;1251;73649;-62
2023/08/11 05:54:47;;;;;;;4.20;3.70;;;;;;;21.24;100.00;99740.13;104342;1273;69088;-62
2023/08/11 05:57:15;;;;;;;7.80;4.10;;;;;;;21.33;100.00;99738.65;104255;1266;72497;-63
2023/08/11 05:59:42;;;;;;;8.50;4.30;;;;;;;21.44;100.00;99740.05;104294;1263;61749;-66
2023/08/11 06:02:10;;;;;;;;;;;;;;;21.54;100.00;99737.91;104360;1256;61153;-64
2023/08/11 06:04:38;;;;;;;;;;;;;;;21.64;100.00;99732.61;104383;1259;74422;-63
2023/08/11 06:07:05;;;;;;;;;;;;;;;21.72;100.00;99732.96;104342;1260;69512;-63
2023/08/11 06:09:36;;;;;;;4.20;3.40;;;;;;;21.81;100.00;99731.86;104352;1264;72089;-63
2023/08/11 06:12:04;;;;;;;7.80;4.30;;;;;;;21.91;100.00;99735.98;104371;1256;61018;-60
2023/08/11 06:14:32;;;;;;;10.90;4.10;;;;;;;22.00;100.00;99737.83;104362;1256;60541;-61
2023/08/11 06:16:59;;;;;;;;;;;;;;;22.10;100.00;99742.32;104326;1273;73664;-61
2023/08/11 06:19:27;;;;;;;;;;;;;;;22.18;100.00;99742.85;104408;1257;68948;-65
2023/08/11 06:21:55;;;;;;;6.30;3.30;;;;;;;22.24;100.00;99741.42;104282;1251;71329;-61
2023/08/11 06:24:23;;;;;;;7.20;4.30;;;;;;;22.28;100.00;99737.13;104342;1257;61964;-68
2023/08/11 06:26:54;;;;;;;5.90;3.90;;;;;;;22.37;100.00;99738.85;104381;1258;59935;-60
2023/08/11 06:29:22;;;;;;;6.50;3.80;;;;;;;22.43;100.00;99737.39;104325;1258;73690;-61
2023/08/11 06:31:49;;;;;;;5.70;3.90;;;;;;;22.56;100.00;99740.00;104526;1251;69579;-61
2023/08/11 06:34:17;;;;;;;6.40;3.70;;;;;;;22.64;100.00;99739.40;104578;1258;73024;-61
2023/08/11 06:36:47;;;;;;;5.90;3.70;;;;;;;22.64;100.00;99741.59;104279;1266;61693;-60
2023/08/11 06:39:16;;;;;;;10.80;4.30;;;;;;;22.78;100.00;99744.02;104420;1257;60498;-62
2023/08/11 06:41:44;;;;;;;6.70;3.90;;;;;;;22.86;100.00;99739.72;104338;1266;73829;-62
2023/08/11 06:44:12;;;;;;;6.60;4.30;;;;;;;22.96;100.00;99734.27;108358;1251;68529;-61
2023/08/11 06:46:39;;;;;;;3.90;3.10;;;;;;;23.10;100.00;99733.94;105512;1261;72806;-61
2023/08/11 06:49:07;;;;;;;6.90;3.30;;;;;;;23.22;100.00;99727.27;104918;1256;62400;-64
2023/08/11 06:51:35;;;;;;;;;;;;;;;23.29;100.00;99723.39;104563;1257;60552;-62
2023/08/11 06:54:03;;;;;;;6.20;3.50;;;;;;;23.37;100.00;99720.45;104400;1255;73694;-62
2023/08/11 06:56:31;;;;;;;7.30;3.10;;;;;;;23.46;100.00;99719.24;104520;1256;68135;-63
2023/08/11 06:58:59;;;;;;;;;;;;;;;23.56;100.00;99713.48;104300;1251;73109;-63
2023/08/11 07:01:26;;;;;;;;;;;;;;;23.64;100.00;99712.70;104393;1257;61396;-64
2023/08/11 07:03:54;;;;;;;6.80;2.70;;;;;;;23.72;100.00;99715.33;104270;1257;59816;-61
2023/08/11 07:06:22;;;;;;;5.60;3.20;;;;;;;23.82;100.00;99717.85;104295;1275;72876;-63
2023/08/11 07:08:49;;;;;;;5.20;3.10;;;;;;;23.91;100.00;99714.44;104266;1275;68467;-62
2023/08/11 07:11:17;;;;;;;6.50;3.10;;;;;;;23.99;100.00;99711.27;104324;1275;73283;-64
2023/08/11 07:13:45;;;;;;;7.20;3.40;;;;;;;24.04;100.00;99709.25;104287;1253;61366;-62
2023/08/11 07:16:13;;;;;;;5.30;3.20;;;;;;;24.10;100.00;99715.97;104279;1251;60513;-62
2023/08/11 07:18:40;;;;;;;6.10;3.00;;;;;;;24.19;100.00;99709.52;104285;1266;73544;-62
2023/08/11 07:21:08;;;;;;;6.20;3.20;;;;;;;24.30;100.00;99710.08;104260;1257;70055;-61
2023/08/11 07:23:36;;;;;;;4.20;2.90;;;;;;;24.41;100.00;99708.29;104276;1266;72607;-61
2023/08/11 07:26:03;;;;;;;;;;;;;;;24.51;100.00;99707.09;104334;1256;61460;-62
2023/08/11 07:28:31;;;;;;;4.50;3.30;;;;;;;24.58;100.00;99708.35;104367;1257;60508;-62
2023/08/11 07:30:59;;;;;;;5.80;2.80;;;;;;;24.65;100.00;99705.11;104325;1265;73533;-62
2023/08/11 07:33:27;;;;;;;5.30;3.30;;;;;;;24.77;100.00;99703.90;104350;1251;69070;-62
2023/08/11 07:35:55;;;;;;;4.20;3.10;;;;;;;24.83;100.00;99700.69;104336;1260;72333;-61
2023/08/11 07:38:22;;;;;;;5.30;3.20;;;;;;;24.87;100.00;99706.33;104333;1260;60658;-61
2023/08/11 07:40:52;;;;;;;4.80;2.60;;;;;;;24.95;100.00;99704.89;104283;1271;60584;-61
2023/08/11 07:43:19;;;;;;;7.20;3.90;;;;;;;24.97;100.00;99704.77;104406;1259;73569;-62
2023/08/11 07:45:47;;;;;;;8.10;3.10;;;;;;;25.03;100.00;99705.95;104405;1275;70130;-63
2023/08/11 07:48:15;;;;;;;7.40;2.90;;;;;;;25.12;100.00;99705.08;104304;1275;72343;-64
2023/08/11 07:50:44;;;;;;;8.60;3.50;;;;;;;25.18;100.00;99703.89;104392;1254;61383;-64
2023/08/11 07:53:12;;;;;;;4.80;3.10;;;;;;;25.22;100.00;99704.23;104314;1258;60542;-63
2023/08/11 07:55:41;;;;;;;8.00;3.20;;;;;;;25.27;100.00;99708.23;104333;1258;74140;-62
2023/08/11 07:58:08;;;;;;;8.60;3.70;;;;;;;25.35;100.00;99712.23;104278;1254;69590;-62
2023/08/11 08:00:36;;;;;;;5.10;3.40;;;;;;;25.46;100.00;99717.00;104395;1254;72469;-63
2023/08/11 08:03:04;;;;;;;8.70;3.30;;;;;;;25.58;100.00;99722.93;104377;1257;60569;-63
2023/08/11 08:05:32;;;;;;;7.30;3.10;;;;;;;25.73;100.00;99721.02;104394;1270;61035;-62
2023/08/11 08:08:00;;;;;;;;;;;;;;;25.81;100.00;99716.90;104440;1266;73678;-63
2023/08/11 08:10:27;;;;;;;7.10;3.10;;;;;;;25.88;100.00;99713.39;104354;1257;68129;-63
2023/08/11 08:12:55;;;;;;;4.40;3.20;;;;;;;25.94;100.00;99709.81;104370;1259;72309;-64
2023/08/11 08:15:24;;;;;;;;;;;;;;;26.04;100.00;99711.95;104337;1257;61488;-63
2023/08/11 08:17:52;;;;;;;7.70;2.90;;;;;;;26.16;100.00;99712.50;104277;1258;61009;-62
2023/08/11 08:20:20;;;;;;;;;;;;;;;26.25;100.00;99712.08;104313;1260;73558;-62
2023/08/11 08:22:48;;;;;;;5.10;2.50;;;;;;;26.33;100.00;99708.19;104343;1257;69173;-63
2023/08/11 08:25:16;;;;;;;4.70;2.50;;;;;;;26.39;100.00;99708.67;104321;1266;72443;-63
2023/08/11 08:27:43;;;;;;;;;;;;;;;26.47;100.00;99708.51;104370;1254;61762;-62
2023/08/11 08:30:13;;;;;;;7.20;2.50;;;;;;;26.55;100.00;99711.04;104336;1254;60931;-64
2023/08/11 08:32:41;;;;;;;3.60;2.30;;;;;;;26.64;100.00;99711.01;104557;1257;73632;-65
2023/08/11 08:35:09;;;;;;;4.60;2.40;;;;;;;26.72;100.00;99715.84;104480;1263;69011;-62
2023/08/11 08:37:37;;;;;;;2.50;2.00;;;;;;;26.83;100.00;99711.98;104498;1257;72431;-61
2023/08/11 08:40:08;;;;;;;4.10;2.60;;;;;;;26.91;100.00;99707.59;104310;1255;61780;-61
2023/08/11 08:42:36;;;;;;;5.40;2.30;;;;;;;27.02;100.00;99706.76;104388;1254;60725;-62
2023/08/11 08:45:04;;;;;;;;;;;;;;;27.16;100.00;99711.75;104391;1275;73551;-63
2023/08/11 08:47:31;;;;;;;6.40;2.30;;;;;;;27.24;99.88;99710.30;106372;1254;70105;-62
2023/08/11 08:49:59;;;;;;;3.30;2.30;;;;;;;27.31;99.59;99712.63;104655;1261;73359;-62
2023/08/11 08:52:27;;;;;;;;;;;;;;;27.38;97.82;99707.99;104431;1260;468398;-64
2023/08/11 08:56:05;;;;;;;5.10;2.10;;;;;;;27.18;99.35;99707.52;101611;1293;601547;-63
2023/08/11 08:58:32;;;;;;;4.00;2.10;;;;;;;27.57;97.25;99702.84;103669;1266;59788;-63
2023/08/11 09:01:01;;;;;;;3.90;2.20;;;;;;;27.72;99.03;99695.52;103400;1268;59796;-65
2023/08/11 09:03:33;;;;;;;3.00;2.30;;;;;;;27.87;98.73;99698.88;103529;1271;72008;-64
2023/08/11 09:06:01;;;;;;;4.80;2.30;;;;;;;27.97;92.94;99699.42;103280;1288;69074;-62
2023/08/11 21:12:50;;;;;;;4.70;3.20;;;;;;;20.77;100.00;99677.10;101128;1292;601811;-62
2023/08/11 21:15:19;;;;;;;3.90;3.50;;;;;;;21.01;100.00;99675.46;103418;1268;61498;-61
2023/08/11 21:17:46;;;;;;;;;;;;;;;20.95;100.00;99669.36;103423;1270;59933;-62
2023/08/11 21:20:14;;;;;;;;;;;;;;;20.93;100.00;99670.60;103478;1289;70882;-63
2023/08/11 21:22:41;;;;;;;7.00;3.50;;;;;;;20.85;100.00;99669.13;103443;1283;69225;-62
2023/08/11 21:25:09;;;;;;;5.50;3.20;;;;;;;20.81;100.00;99667.33;103456;1270;71517;-62
2023/08/11 21:27:37;;;;;;;4.10;3.30;;;;;;;20.79;100.00;99672.00;103754;1267;215191;-62
2023/08/11 21:30:06;;;;;;;4.80;3.30;;;;;;;20.76;100.00;99671.38;103925;1264;59848;-62
2023/08/11 21:32:33;;;;;;;5.30;3.50;;;;;;;20.78;100.00;99672.60;103806;1280;72056;-61
2023/08/11 21:35:01;;;;;;;3.80;3.10;;;;;;;20.76;100.00;99674.83;104259;1269;69661;-62
2023/08/11 21:37:30;;;;;;;;;;;;;;;20.74;100.00;99676.12;103685;1286;72354;-62
2023/08/11 21:39:58;;;;;;;5.30;3.00;;;;;;;20.71;100.00;99672.85;103651;1267;61416;-61
2023/08/11 21:42:26;;;;;;;3.80;3.20;;;;;;;20.67;100.00;99669.81;104039;1270;60321;-62
2023/08/11 21:44:54;;;;;;;3.50;3.20;;;;;;;20.65;100.00;99668.59;103794;1270;73296;-61
2023/08/11 21:47:22;;;;;;;5.90;3.30;;;;;;;20.61;100.00;99671.13;103811;1267;69459;-61
2023/08/11 21:49:49;;;;;;;4.50;2.80;;;;;;;20.65;100.00;99674.21;103917;1267;72230;-61
2023/08/11 21:52:17;;;;;;;;;;;;;;;20.64;100.00;99672.77;104844;1263;61509;-62
2023/08/11 21:54:45;;;;;;;6.70;3.20;;;;;;;20.64;100.00;99675.19;106655;1263;59433;-61
2023/08/11 21:57:12;;;;;;;3.30;2.90;;;;;;;20.56;100.00;99672.11;103587;1279;72985;-60
2023/08/11 21:59:40;;;;;;;3.40;3.10;;;;;;;20.52;100.00;99669.08;103992;1267;69329;-61
2023/08/11 22:02:09;;;;;;;5.50;3.20;;;;;;;20.48;100.00;99665.27;103742;1274;72339;-61
2023/08/11 22:04:37;;;;;;;4.10;3.10;;;;;;;20.48;100.00;99661.02;103870;1269;61473;-61
2023/08/11 22:07:05;;;;;;;4.90;3.10;;;;;;;20.49;100.00;99663.79;103868;1263;59759;-61
2023/08/11 22:09:33;;;;;;;3.10;2.70;;;;;;;20.47;100.00;99662.92;103648;1266;72815;-61
2023/08/11 22:12:01;;;;;;;;;;;;;;;20.46;100.00;99664.96;103754;1281;69167;-61
2023/08/11 22:14:29;;;;;;;;;;;;;;;20.45;100.00;99661.83;104099;1266;72333;-61
2023/08/11 22:16:57;;;;;;;3.00;2.60;;;;;;;20.41;100.00;99658.38;103902;1262;61743;-60
2023/08/11 22:19:25;;;;;;;5.10;3.10;;;;;;;20.38;100.00;99658.98;103797;1270;60066;-62
2023/08/11 22:21:52;;;;;;;4.60;3.40;;;;;;;20.37;100.00;99660.11;103914;1265;72803;-62
2023/08/11 22:24:20;;;;;;;4.80;3.00;;;;;;;20.37;100.00;99655.86;103908;1283;69260;-60
2023/08/11 22:27:07;;;;;;;4.60;3.30;;;;;;;20.36;100.00;99651.70;103874;1266;72429;-61
2023/08/11 22:29:36;;;;;;;4.80;3.00;;;;;;;20.34;100.00;99653.61;103915;1264;61738;-60
2023/08/11 22:32:03;;;;;;;4.60;3.30;;;;;;;20.33;100.00;99652.67;103991;1266;59762;-61
2023/08/11 22:34:31;;;;;;;;;;;;;;;20.30;100.00;99650.45;104058;1266;73680;-62
2023/08/11 22:36:59;;;;;;;;;;;;;;;20.29;100.00;99646.92;103881;1284;70039;-61
2023/08/11 22:39:26;;;;;;;;;;;;;;;20.25;100.00;99640.70;103746;1260;73325;-61
2023/08/11 22:41:54;;;;;;;5.80;2.90;;;;;;;20.22;100.00;99635.70;103902;1263;62403;-62
2023/08/11 22:44:22;;;;;;;;;;;;;;;20.21;100.00;99628.86;104040;1261;60720;-60
2023/08/11 22:46:50;;;;;;;3.30;3.00;;;;;;;20.20;100.00;99628.45;103943;1275;73561;-61
2023/08/11 22:49:18;;;;;;;3.00;2.80;;;;;;;20.13;100.00;99627.05;103822;1267;68275;-61
2023/08/11 22:51:46;;;;;;;;;;;;;;;20.14;100.00;99628.10;104637;1261;72920;-61
2023/08/11 22:54:14;;;;;;;6.40;2.80;;;;;;;20.12;100.00;99629.47;107342;1260;61563;-62
2023/08/11 22:56:42;;;;;;;4.00;3.20;;;;;;;20.11;100.00;99631.17;105301;1263;60063;-61
